TimeCDT,TemperatureF,Dew PointF,Humidity,Sea Level PressureIn,VisibilityMPH,Wind Direction,Wind SpeedMPH,Gust SpeedMPH,PrecipitationIn,Events,Conditions,WindDirDegrees,DateUTC
12:53 AM,45.0,36.0,71,30.09,10.0,ENE,10.4,-,N/A,,Overcast,60,2013-04-17 05:53:00
1:53 AM,46.0,37.0,71,30.06,10.0,East,12.7,-,N/A,,Overcast,80,2013-04-17 06:53:00
2:16 AM,44.6,37.4,76,30.03,10.0,East,13.8,-,N/A,,Overcast,80,2013-04-17 07:16:00
2:53 AM,45.0,37.9,76,30.04,10.0,East,11.5,-,N/A,,Overcast,80,2013-04-17 07:53:00
3:53 AM,46.0,39.9,79,29.99,10.0,East,9.2,-,N/A,,Overcast,100,2013-04-17 08:53:00
4:53 AM,46.0,41.0,83,29.96,10.0,East,10.4,-,N/A,,Overcast,90,2013-04-17 09:53:00
5:04 AM,46.4,42.8,87,29.95,10.0,East,12.7,-,N/A,,Overcast,90,2013-04-17 10:04:00
5:53 AM,46.0,43.0,89,29.95,7.0,East,9.2,-,N/A,,Overcast,80,2013-04-17 10:53:00
6:19 AM,46.4,44.6,93,29.93,5.0,East,10.4,-,N/A,,Overcast,90,2013-04-17 11:19:00
6:39 AM,46.4,44.6,93,29.92,2.0,East,11.5,-,N/A,,Overcast,100,2013-04-17 11:39:00
6:48 AM,46.4,44.6,93,29.91,1.5,East,12.7,-,N/A,,Overcast,90,2013-04-17 11:48:00
6:53 AM,46.0,44.1,93,29.93,1.2,East,11.5,-,N/A,,Overcast,100,2013-04-17 11:53:00
7:05 AM,46.4,44.6,93,29.91,0.5,East,10.4,-,N/A,Fog,Fog,100,2013-04-17 12:05:00
7:25 AM,46.4,44.6,93,29.91,0.2,ESE,10.4,-,N/A,Fog,Fog,110,2013-04-17 12:25:00
7:53 AM,46.9,46.0,97,29.94,0.2,ESE,9.2,-,N/A,Fog,Fog,110,2013-04-17 12:53:00
9:53 AM,48.9,48.0,97,29.90,0.2,East,6.9,-,N/A,Fog,Fog,90,2013-04-17 14:53:00
10:27 AM,50.0,48.2,94,29.88,0.5,ENE,3.5,-,0.04,Fog-Rain,Light Rain,70,2013-04-17 15:27:00
10:42 AM,50.0,48.2,94,29.87,0.5,East,5.8,-,0.04,Fog-Rain-Thunderstorm,Light Rain,80,2013-04-17 15:42:00
10:53 AM,50.0,48.9,96,29.87,0.5,East,5.8,-,0.08,Fog-Rain-Thunderstorm,Light Thunderstorms and Rain,80,2013-04-17 15:53:00
10:59 AM,50.0,48.2,94,29.86,1.0,East,8.1,-,0.00,Rain-Thunderstorm,Light Thunderstorms and Rain,80,2013-04-17 15:59:00
11:28 AM,50.0,48.2,94,29.84,1.0,NNE,11.5,-,0.03,Rain-Thunderstorm,Light Thunderstorms and Rain,30,2013-04-17 16:28:00
11:43 AM,50.0,48.2,94,29.84,3.0,NE,10.4,-,0.03,Thunderstorm,Overcast,50,2013-04-17 16:43:00
11:53 AM,50.0,48.9,96,29.86,1.8,NNE,8.1,-,0.03,Rain-Thunderstorm,Light Rain,20,2013-04-17 16:53:00
12:21 PM,50.0,48.2,94,29.84,2.0,NNE,8.1,-,0.02,Rain-Thunderstorm,Thunderstorms and Rain,30,2013-04-17 17:21:00
12:29 PM,50.0,48.2,94,29.84,2.5,NE,6.9,-,0.03,Rain,Light Rain,50,2013-04-17 17:29:00
12:38 PM,50.0,48.2,94,29.83,4.0,ENE,10.4,-,0.04,Rain,Light Rain,70,2013-04-17 17:38:00
12:53 PM,50.0,48.9,96,29.83,8.0,NE,6.9,-,0.04,Rain,Light Rain,40,2013-04-17 17:53:00
1:53 PM,50.0,48.9,96,29.80,10.0,NE,10.4,-,0.02,,Overcast,40,2013-04-17 18:53:00
2:53 PM,51.1,48.9,92,29.76,6.0,ENE,8.1,-,N/A,,Overcast,70,2013-04-17 19:53:00
3:41 PM,53.6,51.8,94,29.72,10.0,NNE,5.8,-,N/A,,Overcast,30,2013-04-17 20:41:00
3:53 PM,53.1,51.1,93,29.73,10.0,NNE,6.9,-,N/A,,Overcast,20,2013-04-17 20:53:00
4:53 PM,53.1,51.1,93,29.72,10.0,NNE,4.6,-,N/A,,Overcast,30,2013-04-17 21:53:00
5:53 PM,53.1,51.1,93,29.69,6.0,North,6.9,-,N/A,,Overcast,360,2013-04-17 22:53:00
6:09 PM,53.6,51.8,94,29.69,2.5,North,8.1,-,0.00,,Overcast,360,2013-04-17 23:09:00
6:17 PM,51.8,51.8,100,29.69,0.8,North,8.1,-,0.00,,Overcast,360,2013-04-17 23:17:00
6:40 PM,51.8,51.8,100,29.67,2.0,NNE,8.1,-,0.00,,Overcast,30,2013-04-17 23:40:00
6:50 PM,51.8,51.8,100,29.67,1.5,North,10.4,-,0.00,,Overcast,350,2013-04-17 23:50:00
6:53 PM,52.0,51.1,97,29.68,1.0,NNW,10.4,-,0.00,,Overcast,330,2013-04-17 23:53:00
6:57 PM,51.8,51.8,100,29.66,0.2,North,9.2,-,N/A,Fog,Fog,350,2013-04-17 23:57:00
7:06 PM,51.8,51.8,100,29.66,0.2,North,8.1,-,N/A,Fog,Fog,360,2013-04-18 00:06:00
7:53 PM,50.0,48.9,96,29.67,0.2,NNE,10.4,-,N/A,Fog,Fog,20,2013-04-18 00:53:00
8:26 PM,48.2,48.2,100,29.66,0.2,NNE,9.2,-,N/A,Fog-Thunderstorm,Fog,30,2013-04-18 01:26:00
8:39 PM,48.2,48.2,100,29.66,0.5,NNE,6.9,-,0.00,Fog,Fog,30,2013-04-18 01:39:00
8:53 PM,48.9,48.0,97,29.68,0.2,NW,12.7,20.7,0.00,Fog,Fog,320,2013-04-18 01:53:00
9:08 PM,48.2,46.4,93,29.68,0.2,NW,8.1,17.3,N/A,Fog-Thunderstorm,Unknown,320,2013-04-18 02:08:00
9:20 PM,48.2,46.4,93,29.67,0.2,NNW,8.1,-,N/A,Fog-Thunderstorm,Fog,330,2013-04-18 02:20:00
9:31 PM,48.2,46.4,93,29.67,0.5,NNW,10.4,-,N/A,Fog,Fog,340,2013-04-18 02:31:00
9:53 PM,48.0,46.9,96,29.70,0.5,NW,9.2,-,N/A,Fog-Thunderstorm,Fog,320,2013-04-18 02:53:00
10:11 PM,46.4,46.4,100,29.69,2.0,East,4.6,16.1,0.05,Rain-Thunderstorm,Light Thunderstorms and Rain,90,2013-04-18 03:11:00
10:20 PM,46.4,46.4,100,29.67,6.0,North,9.2,-,0.05,Rain-Thunderstorm,Light Thunderstorms and Rain,360,2013-04-18 03:20:00
10:36 PM,46.4,46.4,100,29.64,1.8,North,16.1,-,0.24,Rain-Thunderstorm,Heavy Thunderstorms and Rain,350,2013-04-18 03:36:00
10:43 PM,46.4,46.4,100,29.67,3.0,NW,5.8,-,0.24,Rain-Thunderstorm,Light Thunderstorms and Rain,320,2013-04-18 03:43:00
10:53 PM,46.9,46.0,97,29.68,9.0,NNW,6.9,-,0.24,Rain-Thunderstorm,Light Rain,330,2013-04-18 03:53:00
11:10 PM,46.4,46.4,100,29.66,1.8,North,6.9,-,0.17,Rain-Thunderstorm,Heavy Thunderstorms and Rain,360,2013-04-18 04:10:00
11:36 PM,46.4,46.4,100,29.69,3.0,NW,6.9,-,0.39,Rain-Thunderstorm,Thunderstorms and Rain,310,2013-04-18 04:36:00
11:53 PM,46.9,46.0,97,29.67,6.0,NE,6.9,-,0.41,Rain-Thunderstorm,Light Thunderstorms and Rain,50,2013-04-18 04:53:00
11:59 PM,46.4,44.6,93,29.65,6.0,NE,11.5,-,0.00,Rain-Thunderstorm,Light Rain,40,2013-04-18 04:59:00